sensor_id;sensor_type;location;lat;lon;timestamp;P1;durP1;ratioP1;P2;durP2;ratioP2
68192;SDS011;55012;47.562;18.414;2023-06-26T00:02:17;12.80;;;8.15;;
68192;SDS011;55012;47.562;18.414;2023-06-26T00:04:43;13.48;;;8.57;;
68192;SDS011;55012;47.562;18.414;2023-06-26T00:07:09;11.82;;;8.73;;
68192;SDS011;55012;47.562;18.414;2023-06-26T00:09:35;16.90;;;8.75;;
68192;SDS011;55012;47.562;18.414;2023-06-26T00:12:00;13.57;;;8.75;;
68192;SDS011;55012;47.562;18.414;2023-06-26T00:14:26;12.02;;;8.65;;
68192;SDS011;55012;47.562;18.414;2023-06-26T00:16:51;15.65;;;8.73;;
68192;SDS011;55012;47.562;18.414;2023-06-26T00:19:17;12.40;;;9.27;;
68192;SDS011;55012;47.562;18.414;2023-06-26T00:21:43;13.95;;;9.45;;
68192;SDS011;55012;47.562;18.414;2023-06-26T00:24:11;13.63;;;9.90;;
68192;SDS011;55012;47.562;18.414;2023-06-26T00:26:38;13.45;;;9.73;;
68192;SDS011;55012;47.562;18.414;2023-06-26T00:29:04;14.82;;;10.18;;
68192;SDS011;55012;47.562;18.414;2023-06-26T00:31:29;14.07;;;9.70;;
68192;SDS011;55012;47.562;18.414;2023-06-26T00:33:55;14.77;;;10.63;;
68192;SDS011;55012;47.562;18.414;2023-06-26T00:36:20;17.42;;;10.70;;
68192;SDS011;55012;47.562;18.414;2023-06-26T00:38:47;16.05;;;10.43;;
68192;SDS011;55012;47.562;18.414;2023-06-26T00:41:13;14.68;;;10.02;;
68192;SDS011;55012;47.562;18.414;2023-06-26T00:43:39;13.13;;;9.10;;
68192;SDS011;55012;47.562;18.414;2023-06-26T00:46:05;15.57;;;9.45;;
68192;SDS011;55012;47.562;18.414;2023-06-26T00:48:34;13.73;;;8.75;;
68192;SDS011;55012;47.562;18.414;2023-06-26T00:51:00;12.98;;;8.50;;
68192;SDS011;55012;47.562;18.414;2023-06-26T00:53:26;11.68;;;8.38;;
68192;SDS011;55012;47.562;18.414;2023-06-26T00:55:53;16.00;;;9.15;;
68192;SDS011;55012;47.562;18.414;2023-06-26T00:58:19;12.05;;;8.40;;
68192;SDS011;55012;47.562;18.414;2023-06-26T01:00:53;13.95;;;9.25;;
68192;SDS011;55012;47.562;18.414;2023-06-26T01:03:24;12.13;;;8.55;;
68192;SDS011;55012;47.562;18.414;2023-06-26T01:05:53;13.25;;;8.73;;
68192;SDS011;55012;47.562;18.414;2023-06-26T01:08:21;12.77;;;8.63;;
68192;SDS011;55012;47.562;18.414;2023-06-26T01:10:48;14.70;;;7.55;;
68192;SDS011;55012;47.562;18.414;2023-06-26T01:13:14;11.77;;;8.13;;
68192;SDS011;55012;47.562;18.414;2023-06-26T01:15:41;10.45;;;7.15;;
68192;SDS011;55012;47.562;18.414;2023-06-26T01:18:06;12.60;;;8.48;;
68192;SDS011;55012;47.562;18.414;2023-06-26T01:20:34;16.80;;;8.73;;
68192;SDS011;55012;47.562;18.414;2023-06-26T01:23:46;11.43;;;7.65;;
68192;SDS011;55012;47.562;18.414;2023-06-26T01:28:44;11.38;;;8.20;;
68192;SDS011;55012;47.562;18.414;2023-06-26T01:31:11;11.25;;;7.47;;
68192;SDS011;55012;47.562;18.414;2023-06-26T01:33:38;11.20;;;7.07;;
68192;SDS011;55012;47.562;18.414;2023-06-26T01:36:05;9.35;;;7.13;;
68192;SDS011;55012;47.562;18.414;2023-06-26T01:38:31;13.18;;;8.07;;
68192;SDS011;55012;47.562;18.414;2023-06-26T01:40:57;14.02;;;7.75;;
68192;SDS011;55012;47.562;18.414;2023-06-26T01:46:36;12.60;;;8.43;;
68192;SDS011;55012;47.562;18.414;2023-06-26T01:51:32;11.65;;;7.80;;
68192;SDS011;55012;47.562;18.414;2023-06-26T01:54:05;9.50;;;6.85;;
68192;SDS011;55012;47.562;18.414;2023-06-26T01:56:35;10.00;;;7.35;;
68192;SDS011;55012;47.562;18.414;2023-06-26T01:59:03;10.02;;;6.78;;
68192;SDS011;55012;47.562;18.414;2023-06-26T02:01:32;12.38;;;7.50;;
68192;SDS011;55012;47.562;18.414;2023-06-26T02:03:58;11.98;;;7.38;;
68192;SDS011;55012;47.562;18.414;2023-06-26T02:06:24;13.27;;;7.45;;
68192;SDS011;55012;47.562;18.414;2023-06-26T02:08:50;15.82;;;9.23;;
68192;SDS011;55012;47.562;18.414;2023-06-26T02:11:15;11.45;;;7.65;;
68192;SDS011;55012;47.562;18.414;2023-06-26T02:13:41;13.25;;;8.23;;
68192;SDS011;55012;47.562;18.414;2023-06-26T02:16:06;13.10;;;8.48;;
68192;SDS011;55012;47.562;18.414;2023-06-26T02:18:32;18.27;;;10.55;;
68192;SDS011;55012;47.562;18.414;2023-06-26T02:20:57;13.05;;;8.63;;
68192;SDS011;55012;47.562;18.414;2023-06-26T02:23:22;12.85;;;8.32;;
68192;SDS011;55012;47.562;18.414;2023-06-26T02:25:48;13.77;;;8.00;;
68192;SDS011;55012;47.562;18.414;2023-06-26T02:28:13;11.30;;;6.97;;
68192;SDS011;55012;47.562;18.414;2023-06-26T02:30:39;9.38;;;6.82;;
68192;SDS011;55012;47.562;18.414;2023-06-26T02:33:04;8.52;;;6.20;;
68192;SDS011;55012;47.562;18.414;2023-06-26T02:35:29;11.05;;;7.00;;
68192;SDS011;55012;47.562;18.414;2023-06-26T02:37:55;10.68;;;7.00;;
68192;SDS011;55012;47.562;18.414;2023-06-26T02:40:20;9.00;;;6.53;;
68192;SDS011;55012;47.562;18.414;2023-06-26T02:42:46;13.38;;;8.80;;
68192;SDS011;55012;47.562;18.414;2023-06-26T02:45:11;12.15;;;6.85;;
68192;SDS011;55012;47.562;18.414;2023-06-26T02:47:36;11.13;;;7.65;;
68192;SDS011;55012;47.562;18.414;2023-06-26T02:50:05;10.23;;;7.00;;
68192;SDS011;55012;47.562;18.414;2023-06-26T02:52:31;10.15;;;6.90;;
68192;SDS011;55012;47.562;18.414;2023-06-26T02:54:57;10.43;;;8.07;;
68192;SDS011;55012;47.562;18.414;2023-06-26T02:57:22;19.08;;;10.88;;
68192;SDS011;55012;47.562;18.414;2023-06-26T02:59:47;10.50;;;7.00;;
68192;SDS011;55012;47.562;18.414;2023-06-26T03:02:13;10.70;;;7.32;;
68192;SDS011;55012;47.562;18.414;2023-06-26T03:04:38;14.77;;;7.55;;
68192;SDS011;55012;47.562;18.414;2023-06-26T03:07:04;12.77;;;8.10;;
68192;SDS011;55012;47.562;18.414;2023-06-26T03:09:29;10.75;;;7.85;;
68192;SDS011;55012;47.562;18.414;2023-06-26T03:11:55;12.38;;;8.38;;
68192;SDS011;55012;47.562;18.414;2023-06-26T03:14:21;13.15;;;8.30;;
68192;SDS011;55012;47.562;18.414;2023-06-26T03:16:46;11.02;;;6.88;;
68192;SDS011;55012;47.562;18.414;2023-06-26T03:19:12;11.82;;;7.22;;
68192;SDS011;55012;47.562;18.414;2023-06-26T03:21:38;10.98;;;7.43;;
68192;SDS011;55012;47.562;18.414;2023-06-26T03:24:03;10.20;;;6.75;;
68192;SDS011;55012;47.562;18.414;2023-06-26T03:26:29;12.73;;;7.38;;
68192;SDS011;55012;47.562;18.414;2023-06-26T03:28:54;11.25;;;7.30;;
68192;SDS011;55012;47.562;18.414;2023-06-26T03:31:20;14.32;;;8.65;;
68192;SDS011;55012;47.562;18.414;2023-06-26T03:33:45;13.10;;;8.57;;
68192;SDS011;55012;47.562;18.414;2023-06-26T03:36:11;12.45;;;8.77;;
68192;SDS011;55012;47.562;18.414;2023-06-26T03:38:37;16.05;;;10.07;;
68192;SDS011;55012;47.562;18.414;2023-06-26T03:41:02;13.82;;;8.70;;
68192;SDS011;55012;47.562;18.414;2023-06-26T03:43:28;14.88;;;9.15;;
68192;SDS011;55012;47.562;18.414;2023-06-26T03:45:54;13.52;;;8.85;;
68192;SDS011;55012;47.562;18.414;2023-06-26T03:48:19;17.02;;;9.75;;
68192;SDS011;55012;47.562;18.414;2023-06-26T03:50:45;14.95;;;8.85;;
68192;SDS011;55012;47.562;18.414;2023-06-26T03:53:10;15.57;;;9.23;;
68192;SDS011;55012;47.562;18.414;2023-06-26T03:55:37;13.88;;;9.07;;
68192;SDS011;55012;47.562;18.414;2023-06-26T03:58:03;12.45;;;7.78;;
68192;SDS011;55012;47.562;18.414;2023-06-26T04:00:29;16.10;;;9.20;;
68192;SDS011;55012;47.562;18.414;2023-06-26T04:02:54;13.98;;;8.75;;
68192;SDS011;55012;47.562;18.414;2023-06-26T04:05:20;15.30;;;8.18;;
68192;SDS011;55012;47.562;18.414;2023-06-26T04:07:45;12.73;;;8.40;;
68192;SDS011;55012;47.562;18.414;2023-06-26T04:10:14;12.35;;;7.15;;
68192;SDS011;55012;47.562;18.414;2023-06-26T04:12:39;13.40;;;8.13;;
68192;SDS011;55012;47.562;18.414;2023-06-26T04:15:05;12.68;;;8.68;;
68192;SDS011;55012;47.562;18.414;2023-06-26T04:17:31;13.88;;;8.80;;
68192;SDS011;55012;47.562;18.414;2023-06-26T04:19:56;12.00;;;8.35;;
68192;SDS011;55012;47.562;18.414;2023-06-26T04:22:22;11.80;;;8.23;;
68192;SDS011;55012;47.562;18.414;2023-06-26T04:24:47;11.98;;;8.50;;
68192;SDS011;55012;47.562;18.414;2023-06-26T04:27:13;16.83;;;8.60;;
68192;SDS011;55012;47.562;18.414;2023-06-26T04:29:39;13.77;;;8.93;;
68192;SDS011;55012;47.562;18.414;2023-06-26T04:32:04;14.18;;;9.02;;
68192;SDS011;55012;47.562;18.414;2023-06-26T04:34:30;14.38;;;8.30;;
68192;SDS011;55012;47.562;18.414;2023-06-26T04:37:00;12.65;;;7.80;;
68192;SDS011;55012;47.562;18.414;2023-06-26T04:39:25;11.45;;;7.53;;
68192;SDS011;55012;47.562;18.414;2023-06-26T04:41:51;12.05;;;7.15;;
68192;SDS011;55012;47.562;18.414;2023-06-26T04:44:16;9.95;;;6.75;;
68192;SDS011;55012;47.562;18.414;2023-06-26T04:46:41;11.20;;;7.57;;
68192;SDS011;55012;47.562;18.414;2023-06-26T04:49:09;10.98;;;7.15;;
68192;SDS011;55012;47.562;18.414;2023-06-26T04:51:35;12.25;;;8.48;;
68192;SDS011;55012;47.562;18.414;2023-06-26T04:54:07;15.98;;;8.77;;
68192;SDS011;55012;47.562;18.414;2023-06-26T04:56:34;13.98;;;7.60;;
68192;SDS011;55012;47.562;18.414;2023-06-26T04:59:00;11.70;;;8.00;;
68192;SDS011;55012;47.562;18.414;2023-06-26T05:01:25;13.13;;;8.75;;
68192;SDS011;55012;47.562;18.414;2023-06-26T05:03:54;11.43;;;8.05;;
68192;SDS011;55012;47.562;18.414;2023-06-26T05:06:19;13.10;;;8.55;;
68192;SDS011;55012;47.562;18.414;2023-06-26T05:08:45;14.07;;;9.07;;
68192;SDS011;55012;47.562;18.414;2023-06-26T05:11:10;13.77;;;8.68;;
68192;SDS011;55012;47.562;18.414;2023-06-26T05:13:36;13.23;;;7.90;;
68192;SDS011;55012;47.562;18.414;2023-06-26T05:16:01;11.55;;;8.00;;
68192;SDS011;55012;47.562;18.414;2023-06-26T05:18:27;13.70;;;9.15;;
68192;SDS011;55012;47.562;18.414;2023-06-26T05:20:52;16.33;;;9.27;;
68192;SDS011;55012;47.562;18.414;2023-06-26T05:23:18;16.02;;;9.43;;
68192;SDS011;55012;47.562;18.414;2023-06-26T05:25:44;15.68;;;9.50;;
68192;SDS011;55012;47.562;18.414;2023-06-26T05:28:10;11.40;;;7.32;;
68192;SDS011;55012;47.562;18.414;2023-06-26T05:30:37;11.52;;;7.63;;
68192;SDS011;55012;47.562;18.414;2023-06-26T05:33:02;11.98;;;7.05;;
68192;SDS011;55012;47.562;18.414;2023-06-26T05:35:29;13.32;;;8.30;;
68192;SDS011;55012;47.562;18.414;2023-06-26T05:37:56;15.45;;;8.80;;
68192;SDS011;55012;47.562;18.414;2023-06-26T05:40:22;13.65;;;9.02;;
68192;SDS011;55012;47.562;18.414;2023-06-26T05:42:48;10.43;;;7.18;;
68192;SDS011;55012;47.562;18.414;2023-06-26T05:45:14;14.75;;;9.40;;
68192;SDS011;55012;47.562;18.414;2023-06-26T05:47:40;16.75;;;10.63;;
68192;SDS011;55012;47.562;18.414;2023-06-26T05:50:07;14.15;;;10.55;;
68192;SDS011;55012;47.562;18.414;2023-06-26T05:52:34;13.30;;;7.53;;
68192;SDS011;55012;47.562;18.414;2023-06-26T05:55:00;14.05;;;9.70;;
68192;SDS011;55012;47.562;18.414;2023-06-26T05:57:26;11.75;;;7.95;;
68192;SDS011;55012;47.562;18.414;2023-06-26T05:59:53;18.13;;;9.52;;
68192;SDS011;55012;47.562;18.414;2023-06-26T06:02:18;13.48;;;9.15;;
68192;SDS011;55012;47.562;18.414;2023-06-26T06:04:44;13.85;;;9.00;;
68192;SDS011;55012;47.562;18.414;2023-06-26T06:07:10;14.35;;;8.77;;
68192;SDS011;55012;47.562;18.414;2023-06-26T06:09:35;14.70;;;9.60;;
68192;SDS011;55012;47.562;18.414;2023-06-26T06:12:01;14.95;;;8.57;;
68192;SDS011;55012;47.562;18.414;2023-06-26T06:14:28;11.88;;;8.05;;
68192;SDS011;55012;47.562;18.414;2023-06-26T06:16:54;13.43;;;9.00;;
68192;SDS011;55012;47.562;18.414;2023-06-26T06:19:19;17.10;;;10.18;;
68192;SDS011;55012;47.562;18.414;2023-06-26T06:21:45;13.95;;;8.45;;
68192;SDS011;55012;47.562;18.414;2023-06-26T06:24:10;13.02;;;8.75;;
68192;SDS011;55012;47.562;18.414;2023-06-26T06:26:36;12.90;;;8.52;;
68192;SDS011;55012;47.562;18.414;2023-06-26T06:29:01;12.73;;;8.40;;
68192;SDS011;55012;47.562;18.414;2023-06-26T06:31:26;12.45;;;8.63;;
68192;SDS011;55012;47.562;18.414;2023-06-26T06:33:55;13.27;;;8.82;;
68192;SDS011;55012;47.562;18.414;2023-06-26T06:36:20;11.82;;;8.63;;
68192;SDS011;55012;47.562;18.414;2023-06-26T06:38:46;14.73;;;8.75;;
68192;SDS011;55012;47.562;18.414;2023-06-26T06:41:11;10.55;;;7.63;;
68192;SDS011;55012;47.562;18.414;2023-06-26T06:43:37;13.43;;;8.85;;
68192;SDS011;55012;47.562;18.414;2023-06-26T06:46:03;18.33;;;9.18;;
68192;SDS011;55012;47.562;18.414;2023-06-26T06:48:29;16.40;;;8.55;;
68192;SDS011;55012;47.562;18.414;2023-06-26T06:50:54;18.35;;;8.77;;
68192;SDS011;55012;47.562;18.414;2023-06-26T06:53:20;12.98;;;8.85;;
68192;SDS011;55012;47.562;18.414;2023-06-26T06:55:46;14.05;;;10.10;;
68192;SDS011;55012;47.562;18.414;2023-06-26T06:58:11;13.63;;;9.60;;
68192;SDS011;55012;47.562;18.414;2023-06-26T07:00:37;12.85;;;8.80;;
68192;SDS011;55012;47.562;18.414;2023-06-26T07:03:02;13.48;;;8.85;;
68192;SDS011;55012;47.562;18.414;2023-06-26T07:05:28;12.80;;;8.80;;
68192;SDS011;55012;47.562;18.414;2023-06-26T07:07:54;12.82;;;8.25;;
68192;SDS011;55012;47.562;18.414;2023-06-26T07:10:19;13.05;;;8.90;;
68192;SDS011;55012;47.562;18.414;2023-06-26T07:12:44;12.63;;;9.23;;
68192;SDS011;55012;47.562;18.414;2023-06-26T07:15:10;13.55;;;9.50;;
68192;SDS011;55012;47.562;18.414;2023-06-26T07:17:35;12.23;;;8.82;;
68192;SDS011;55012;47.562;18.414;2023-06-26T07:20:03;13.60;;;9.57;;
68192;SDS011;55012;47.562;18.414;2023-06-26T07:22:33;16.45;;;9.82;;
68192;SDS011;55012;47.562;18.414;2023-06-26T07:24:59;14.82;;;9.82;;
68192;SDS011;55012;47.562;18.414;2023-06-26T07:27:25;14.02;;;9.57;;
68192;SDS011;55012;47.562;18.414;2023-06-26T07:29:50;13.60;;;9.23;;
68192;SDS011;55012;47.562;18.414;2023-06-26T07:32:16;11.43;;;7.55;;
68192;SDS011;55012;47.562;18.414;2023-06-26T07:34:41;15.82;;;9.70;;
68192;SDS011;55012;47.562;18.414;2023-06-26T07:37:07;13.85;;;9.35;;
68192;SDS011;55012;47.562;18.414;2023-06-26T07:39:33;12.57;;;9.20;;
68192;SDS011;55012;47.562;18.414;2023-06-26T07:41:58;13.65;;;9.65;;
68192;SDS011;55012;47.562;18.414;2023-06-26T07:44:26;15.43;;;9.50;;
68192;SDS011;55012;47.562;18.414;2023-06-26T07:46:52;10.70;;;7.40;;
68192;SDS011;55012;47.562;18.414;2023-06-26T07:49:17;14.48;;;9.35;;
68192;SDS011;55012;47.562;18.414;2023-06-26T07:51:43;15.38;;;9.73;;
68192;SDS011;55012;47.562;18.414;2023-06-26T07:54:09;18.25;;;10.75;;
68192;SDS011;55012;47.562;18.414;2023-06-26T07:59:24;14.50;;;9.68;;
68192;SDS011;55012;47.562;18.414;2023-06-26T08:01:51;13.00;;;9.25;;
68192;SDS011;55012;47.562;18.414;2023-06-26T08:04:18;14.15;;;8.68;;
68192;SDS011;55012;47.562;18.414;2023-06-26T08:06:50;12.60;;;8.55;;
68192;SDS011;55012;47.562;18.414;2023-06-26T08:09:18;12.80;;;8.55;;
68192;SDS011;55012;47.562;18.414;2023-06-26T08:11:45;13.35;;;7.47;;
68192;SDS011;55012;47.562;18.414;2023-06-26T08:14:10;11.38;;;7.25;;
68192;SDS011;55012;47.562;18.414;2023-06-26T08:16:39;10.38;;;7.10;;
68192;SDS011;55012;47.562;18.414;2023-06-26T08:19:05;10.55;;;6.78;;
68192;SDS011;55012;47.562;18.414;2023-06-26T08:21:30;10.32;;;7.03;;
68192;SDS011;55012;47.562;18.414;2023-06-26T08:23:56;10.15;;;7.20;;
68192;SDS011;55012;47.562;18.414;2023-06-26T08:26:21;10.20;;;6.30;;
68192;SDS011;55012;47.562;18.414;2023-06-26T08:28:47;8.00;;;6.30;;
68192;SDS011;55012;47.562;18.414;2023-06-26T08:31:12;9.68;;;6.10;;
68192;SDS011;55012;47.562;18.414;2023-06-26T08:33:38;12.38;;;6.63;;
68192;SDS011;55012;47.562;18.414;2023-06-26T08:36:03;10.52;;;6.22;;
68192;SDS011;55012;47.562;18.414;2023-06-26T08:38:29;9.70;;;6.22;;
68192;SDS011;55012;47.562;18.414;2023-06-26T08:40:54;8.20;;;5.40;;
68192;SDS011;55012;47.562;18.414;2023-06-26T08:43:20;8.57;;;5.70;;
68192;SDS011;55012;47.562;18.414;2023-06-26T08:45:47;7.45;;;5.70;;
68192;SDS011;55012;47.562;18.414;2023-06-26T08:48:16;9.65;;;5.95;;
68192;SDS011;55012;47.562;18.414;2023-06-26T08:50:42;10.52;;;5.80;;
68192;SDS011;55012;47.562;18.414;2023-06-26T08:56:17;6.80;;;5.43;;
68192;SDS011;55012;47.562;18.414;2023-06-26T08:58:45;9.65;;;5.53;;
68192;SDS011;55012;47.562;18.414;2023-06-26T09:01:11;9.70;;;6.47;;
68192;SDS011;55012;47.562;18.414;2023-06-26T09:03:38;7.85;;;5.63;;
68192;SDS011;55012;47.562;18.414;2023-06-26T09:06:03;6.55;;;4.63;;
68192;SDS011;55012;47.562;18.414;2023-06-26T09:08:29;10.32;;;5.57;;
68192;SDS011;55012;47.562;18.414;2023-06-26T09:10:54;8.23;;;5.78;;
68192;SDS011;55012;47.562;18.414;2023-06-26T09:13:20;7.68;;;5.20;;
68192;SDS011;55012;47.562;18.414;2023-06-26T09:15:46;6.93;;;4.78;;
68192;SDS011;55012;47.562;18.414;2023-06-26T09:18:12;9.13;;;5.10;;
68192;SDS011;55012;47.562;18.414;2023-06-26T09:20:38;7.72;;;5.22;;
68192;SDS011;55012;47.562;18.414;2023-06-26T09:23:04;5.95;;;4.60;;
68192;SDS011;55012;47.562;18.414;2023-06-26T09:25:30;6.72;;;4.80;;
68192;SDS011;55012;47.562;18.414;2023-06-26T09:27:56;6.97;;;5.05;;
68192;SDS011;55012;47.562;18.414;2023-06-26T09:30:22;8.27;;;5.05;;
68192;SDS011;55012;47.562;18.414;2023-06-26T09:32:48;8.65;;;5.28;;
68192;SDS011;55012;47.562;18.414;2023-06-26T09:35:15;6.85;;;4.68;;
68192;SDS011;55012;47.562;18.414;2023-06-26T09:37:41;6.57;;;4.75;;
68192;SDS011;55012;47.562;18.414;2023-06-26T09:40:08;7.32;;;4.50;;
68192;SDS011;55012;47.562;18.414;2023-06-26T09:42:34;7.85;;;5.30;;
68192;SDS011;55012;47.562;18.414;2023-06-26T09:45:00;5.95;;;4.85;;
68192;SDS011;55012;47.562;18.414;2023-06-26T09:47:29;6.63;;;4.88;;
68192;SDS011;55012;47.562;18.414;2023-06-26T09:49:59;6.88;;;4.80;;
68192;SDS011;55012;47.562;18.414;2023-06-26T09:52:27;6.93;;;4.90;;
68192;SDS011;55012;47.562;18.414;2023-06-26T09:55:09;6.32;;;4.63;;
68192;SDS011;55012;47.562;18.414;2023-06-26T09:57:35;6.68;;;5.07;;
68192;SDS011;55012;47.562;18.414;2023-06-26T10:00:04;8.77;;;5.05;;
68192;SDS011;55012;47.562;18.414;2023-06-26T10:02:30;8.25;;;5.00;;
68192;SDS011;55012;47.562;18.414;2023-06-26T10:04:56;8.65;;;4.90;;
68192;SDS011;55012;47.562;18.414;2023-06-26T10:07:21;6.45;;;4.90;;
68192;SDS011;55012;47.562;18.414;2023-06-26T10:09:47;7.10;;;5.07;;
68192;SDS011;55012;47.562;18.414;2023-06-26T10:12:28;7.25;;;4.93;;
68192;SDS011;55012;47.562;18.414;2023-06-26T10:14:58;7.40;;;5.00;;
68192;SDS011;55012;47.562;18.414;2023-06-26T10:17:27;8.90;;;5.30;;
68192;SDS011;55012;47.562;18.414;2023-06-26T10:19:55;8.20;;;5.28;;
68192;SDS011;55012;47.562;18.414;2023-06-26T10:22:27;9.43;;;5.10;;
68192;SDS011;55012;47.562;18.414;2023-06-26T10:24:55;8.23;;;5.00;;
68192;SDS011;55012;47.562;18.414;2023-06-26T10:27:24;8.18;;;5.00;;
68192;SDS011;55012;47.562;18.414;2023-06-26T10:29:53;7.10;;;4.90;;
68192;SDS011;55012;47.562;18.414;2023-06-26T10:32:20;9.48;;;4.35;;
68192;SDS011;55012;47.562;18.414;2023-06-26T10:34:48;9.82;;;4.63;;
68192;SDS011;55012;47.562;18.414;2023-06-26T10:37:15;7.00;;;4.82;;
68192;SDS011;55012;47.562;18.414;2023-06-26T10:39:47;6.30;;;4.20;;
68192;SDS011;55012;47.562;18.414;2023-06-26T10:42:14;5.83;;;4.50;;
68192;SDS011;55012;47.562;18.414;2023-06-26T10:44:41;6.75;;;4.15;;
68192;SDS011;55012;47.562;18.414;2023-06-26T10:47:08;6.30;;;4.50;;
68192;SDS011;55012;47.562;18.414;2023-06-26T10:49:34;6.53;;;4.40;;
68192;SDS011;55012;47.562;18.414;2023-06-26T10:52:02;6.57;;;4.25;;
68192;SDS011;55012;47.562;18.414;2023-06-26T10:54:31;5.40;;;4.20;;
68192;SDS011;55012;47.562;18.414;2023-06-26T10:56:58;5.60;;;4.10;;
68192;SDS011;55012;47.562;18.414;2023-06-26T10:59:24;7.28;;;4.10;;
68192;SDS011;55012;47.562;18.414;2023-06-26T11:02:06;5.18;;;4.13;;
68192;SDS011;55012;47.562;18.414;2023-06-26T11:04:44;7.38;;;4.40;;
68192;SDS011;55012;47.562;18.414;2023-06-26T11:07:21;5.68;;;4.10;;
68192;SDS011;55012;47.562;18.414;2023-06-26T11:09:55;5.63;;;4.25;;
68192;SDS011;55012;47.562;18.414;2023-06-26T11:15:07;5.60;;;4.10;;
68192;SDS011;55012;47.562;18.414;2023-06-26T11:17:34;5.85;;;4.20;;
68192;SDS011;55012;47.562;18.414;2023-06-26T11:20:00;6.70;;;4.30;;
68192;SDS011;55012;47.562;18.414;2023-06-26T11:22:26;8.70;;;4.10;;
68192;SDS011;55012;47.562;18.414;2023-06-26T11:24:52;5.28;;;4.13;;
68192;SDS011;55012;47.562;18.414;2023-06-26T11:27:19;6.43;;;4.30;;
68192;SDS011;55012;47.562;18.414;2023-06-26T11:29:48;7.20;;;4.20;;
68192;SDS011;55012;47.562;18.414;2023-06-26T11:32:16;6.30;;;4.63;;
68192;SDS011;55012;47.562;18.414;2023-06-26T11:34:42;6.70;;;4.47;;
68192;SDS011;55012;47.562;18.414;2023-06-26T11:37:08;6.00;;;4.30;;
68192;SDS011;55012;47.562;18.414;2023-06-26T11:39:34;6.43;;;4.10;;
68192;SDS011;55012;47.562;18.414;2023-06-26T11:41:59;5.68;;;4.10;;
68192;SDS011;55012;47.562;18.414;2023-06-26T11:44:28;5.88;;;4.03;;
68192;SDS011;55012;47.562;18.414;2023-06-26T11:46:55;8.20;;;4.57;;
68192;SDS011;55012;47.562;18.414;2023-06-26T11:49:21;5.97;;;4.40;;
68192;SDS011;55012;47.562;18.414;2023-06-26T11:51:48;6.47;;;4.20;;
68192;SDS011;55012;47.562;18.414;2023-06-26T11:54:13;5.00;;;4.05;;
68192;SDS011;55012;47.562;18.414;2023-06-26T11:56:39;8.13;;;4.43;;
68192;SDS011;55012;47.562;18.414;2023-06-26T11:59:06;6.38;;;4.10;;
68192;SDS011;55012;47.562;18.414;2023-06-26T12:04:01;6.00;;;4.15;;
68192;SDS011;55012;47.562;18.414;2023-06-26T12:06:28;5.63;;;4.20;;
68192;SDS011;55012;47.562;18.414;2023-06-26T12:08:56;5.53;;;4.30;;
68192;SDS011;55012;47.562;18.414;2023-06-26T12:11:24;6.35;;;4.13;;
68192;SDS011;55012;47.562;18.414;2023-06-26T12:13:50;6.60;;;4.10;;
68192;SDS011;55012;47.562;18.414;2023-06-26T12:16:16;7.25;;;4.32;;
68192;SDS011;55012;47.562;18.414;2023-06-26T12:18:42;5.60;;;4.53;;
68192;SDS011;55012;47.562;18.414;2023-06-26T12:21:08;5.30;;;4.43;;
68192;SDS011;55012;47.562;18.414;2023-06-26T12:23:38;11.95;;;4.70;;
68192;SDS011;55012;47.562;18.414;2023-06-26T12:26:17;5.35;;;4.03;;
68192;SDS011;55012;47.562;18.414;2023-06-26T12:28:46;6.90;;;4.30;;
68192;SDS011;55012;47.562;18.414;2023-06-26T12:31:13;7.10;;;4.43;;
68192;SDS011;55012;47.562;18.414;2023-06-26T12:33:39;6.78;;;4.10;;
68192;SDS011;55012;47.562;18.414;2023-06-26T12:36:04;6.07;;;4.53;;
68192;SDS011;55012;47.562;18.414;2023-06-26T12:38:35;4.88;;;3.80;;
68192;SDS011;55012;47.562;18.414;2023-06-26T12:41:01;5.80;;;4.20;;
68192;SDS011;55012;47.562;18.414;2023-06-26T12:43:26;5.65;;;4.20;;
68192;SDS011;55012;47.562;18.414;2023-06-26T12:45:55;5.90;;;4.38;;
68192;SDS011;55012;47.562;18.414;2023-06-26T12:48:36;5.70;;;4.18;;
68192;SDS011;55012;47.562;18.414;2023-06-26T12:51:10;6.00;;;4.30;;
68192;SDS011;55012;47.562;18.414;2023-06-26T12:53:36;5.90;;;4.53;;
68192;SDS011;55012;47.562;18.414;2023-06-26T12:56:01;4.90;;;4.03;;
68192;SDS011;55012;47.562;18.414;2023-06-26T12:58:27;5.53;;;4.75;;
68192;SDS011;55012;47.562;18.414;2023-06-26T13:00:52;5.75;;;4.05;;
68192;SDS011;55012;47.562;18.414;2023-06-26T13:03:19;4.53;;;4.05;;
68192;SDS011;55012;47.562;18.414;2023-06-26T13:05:46;4.38;;;3.97;;
68192;SDS011;55012;47.562;18.414;2023-06-26T13:08:12;5.28;;;4.00;;
68192;SDS011;55012;47.562;18.414;2023-06-26T13:10:37;5.28;;;4.28;;
68192;SDS011;55012;47.562;18.414;2023-06-26T13:13:04;6.53;;;4.20;;
68192;SDS011;55012;47.562;18.414;2023-06-26T13:15:30;6.72;;;3.88;;
68192;SDS011;55012;47.562;18.414;2023-06-26T13:17:55;5.70;;;4.10;;
68192;SDS011;55012;47.562;18.414;2023-06-26T13:20:21;4.60;;;3.92;;
68192;SDS011;55012;47.562;18.414;2023-06-26T13:22:46;4.60;;;4.10;;
68192;SDS011;55012;47.562;18.414;2023-06-26T13:25:12;6.97;;;3.92;;
68192;SDS011;55012;47.562;18.414;2023-06-26T13:27:37;5.43;;;4.15;;
68192;SDS011;55012;47.562;18.414;2023-06-26T13:30:02;4.78;;;3.67;;
68192;SDS011;55012;47.562;18.414;2023-06-26T13:32:28;4.63;;;4.15;;
68192;SDS011;55012;47.562;18.414;2023-06-26T13:34:54;4.82;;;4.00;;
68192;SDS011;55012;47.562;18.414;2023-06-26T13:37:19;4.38;;;3.97;;
68192;SDS011;55012;47.562;18.414;2023-06-26T13:39:45;5.63;;;3.80;;
68192;SDS011;55012;47.562;18.414;2023-06-26T13:42:15;4.43;;;4.00;;
68192;SDS011;55012;47.562;18.414;2023-06-26T13:44:41;4.55;;;3.80;;
68192;SDS011;55012;47.562;18.414;2023-06-26T13:47:07;4.30;;;3.60;;
68192;SDS011;55012;47.562;18.414;2023-06-26T13:49:33;7.22;;;3.40;;
68192;SDS011;55012;47.562;18.414;2023-06-26T13:51:58;5.78;;;3.72;;
68192;SDS011;55012;47.562;18.414;2023-06-26T13:54:23;4.00;;;3.60;;
68192;SDS011;55012;47.562;18.414;2023-06-26T13:56:49;4.03;;;3.40;;
68192;SDS011;55012;47.562;18.414;2023-06-26T13:59:14;4.97;;;3.40;;
68192;SDS011;55012;47.562;18.414;2023-06-26T14:01:40;4.80;;;3.58;;
68192;SDS011;55012;47.562;18.414;2023-06-26T14:04:07;4.95;;;3.47;;
68192;SDS011;55012;47.562;18.414;2023-06-26T14:06:33;4.28;;;3.63;;
68192;SDS011;55012;47.562;18.414;2023-06-26T14:08:59;4.18;;;3.78;;
68192;SDS011;55012;47.562;18.414;2023-06-26T14:11:25;6.30;;;3.80;;
68192;SDS011;55012;47.562;18.414;2023-06-26T14:13:51;4.53;;;3.63;;
68192;SDS011;55012;47.562;18.414;2023-06-26T14:16:16;4.20;;;3.50;;
68192;SDS011;55012;47.562;18.414;2023-06-26T14:18:43;4.93;;;3.70;;
68192;SDS011;55012;47.562;18.414;2023-06-26T14:21:09;6.28;;;3.70;;
68192;SDS011;55012;47.562;18.414;2023-06-26T14:23:34;4.13;;;3.72;;
68192;SDS011;55012;47.562;18.414;2023-06-26T14:26:00;4.97;;;3.80;;
68192;SDS011;55012;47.562;18.414;2023-06-26T14:28:25;4.85;;;3.70;;
68192;SDS011;55012;47.562;18.414;2023-06-26T14:30:51;4.55;;;3.38;;
68192;SDS011;55012;47.562;18.414;2023-06-26T14:33:16;6.10;;;3.47;;
68192;SDS011;55012;47.562;18.414;2023-06-26T14:35:42;3.72;;;3.40;;
68192;SDS011;55012;47.562;18.414;2023-06-26T14:38:07;4.55;;;3.67;;
68192;SDS011;55012;47.562;18.414;2023-06-26T14:40:33;4.22;;;3.40;;
68192;SDS011;55012;47.562;18.414;2023-06-26T14:42:58;4.20;;;3.35;;